Aérodrome :
LOGIN :

S'inscrire | Disclaimer

   EN    FR    IT 

 










Légende :    VFR   VFR Marginal   IFR   IFR Intensif   IFR Très Intensif
Visi : 
Plafond : 
>= 8 km
>= 3000ft
5 à 8 km
1000 à 3000 ft
1500m à 5 km
500 à 1000 ft
800 à 1500m
200 à 500 ft
< 800m
< 200 ft
Symboles :   Orages  Brouillard  Fortes neiges  Fortes précipitations  Vent > 20 kt
SIGMETs :   Divers  Orages  Givrage  Turbulence  Onde Orograph.  Cendres Volcan.






- Altitude de l'aérodrome : 102 ft
- Code IATA : EXT


EGTE - Exeter

DERNIER METAR :
  • 220820Z 29006KT 250V340 9999 SCT018 16/12 Q1014

METARs EXPIRÉS :
  • 220750Z 29007KT 270V340 9999 FEW010 SCT018 16/12 Q1014
  • 220720Z 30006KT 260V330 9999 FEW010 SCT018 15/12 Q1013
  • 220650Z 30006KT 260V330 9999 FEW010 15/12 Q1013
  • 220620Z 30007KT 270V350 9999 FEW010 15/12 Q1013
  • 220550Z 27004KT 9999 SCT010 13/13 Q1013
  • 220520Z 27003KT 9999 FEW009 SCT013 13/12 Q1012
  • 220450Z VRB03KT 9999 SCT016 13/12 Q1011

TAF TAF EGTE
Valide du 22 à 09h jusqu'au 22 à 18h UTC


220759Z 2209/2218 29008KT 9999 SCT020



MET'MAP, la Météo Aéronautique d'un coup d'oeil ! - Copyright ORBIFLY Décembre 2007 - Disclaimer

ORBIFLY MET'MAP TEAM :

Programmation & Développement : Alexandra Zaïnal
Sur une idée originale de : Baudouin d'Aumeries
Soutien technique & logistique : Manuel Goepfert
Assistance : Marc-Olivier Méhu




SOURCES & CREDITS :

   NOAA